Time;durP1;ratioP1;P1;durP2;ratioP2;P2;SDS_P1;SDS_P2;PMS_P1;PMS_P2;Temp;Humidity;BMP_temperature;BMP_pressure;BME280_temperature;BME280_humidity;BME280_pressure;Samples;Min_cycle;Max_cycle;Signal;HPM_P1;HPM_P2
2022/12/06 05:00:54;;;;;;;0.77;0.77;;;2.90;99.90;;;;;;5772033;23;20378;-69
2022/12/06 05:03:21;;;;;;;1.83;1.38;;;2.90;99.90;;;;;;4977526;28;20231;-69
2022/12/06 05:05:48;;;;;;;4.20;1.80;;;2.90;99.90;;;;;;4984405;28;20208;-69
2022/12/06 05:08:15;;;;;;;1.50;1.50;;;3.00;99.90;;;;;;4984910;28;20289;-69
2022/12/06 05:10:46;;;;;;;2.55;2.30;;;3.00;99.90;;;;;;4974613;28;20236;-69
2022/12/06 05:13:12;;;;;;;4.97;2.20;;;3.00;99.90;;;;;;4982959;28;20215;-69
2022/12/06 05:15:39;;;;;;;2.03;1.88;;;3.00;99.90;;;;;;5007148;23;20231;-67
2022/12/06 05:18:07;;;;;;;2.10;2.00;;;3.10;99.90;;;;;;4989711;28;20212;-69
2022/12/06 05:20:35;;;;;;;2.55;2.45;;;3.10;99.90;;;;;;4992429;28;20223;-67
2022/12/06 05:23:02;;;;;;;3.58;2.03;;;3.10;99.90;;;;;;4993110;28;20209;-68
2022/12/06 05:25:29;;;;;;;2.75;1.90;;;3.10;99.90;;;;;;4991422;28;20255;-68
2022/12/06 05:27:56;;;;;;;1.25;1.25;;;3.20;99.90;;;;;;4980593;28;20614;-68
2022/12/06 05:30:22;;;;;;;1.45;1.45;;;3.20;99.90;;;;;;4974977;28;20213;-68
2022/12/06 05:32:49;;;;;;;1.48;0.80;;;3.20;99.90;;;;;;4979596;28;20266;-67
2022/12/06 05:35:17;;;;;;;1.77;1.60;;;3.20;99.90;;;;;;4975275;28;20228;-67
2022/12/06 05:37:45;;;;;;;0.93;0.93;;;3.20;99.90;;;;;;4987076;28;20230;-68
2022/12/06 05:40:12;;;;;;;2.58;2.45;;;3.20;99.90;;;;;;4985159;28;20204;-70
2022/12/06 05:42:39;;;;;;;4.60;2.50;;;3.30;99.90;;;;;;4985036;28;20200;-71
2022/12/06 05:45:08;;;;;;;3.08;2.88;;;3.30;99.90;;;;;;4992001;28;20211;-69
2022/12/06 05:47:34;;;;;;;2.53;2.42;;;3.30;99.90;;;;;;4986620;28;20232;-69
2022/12/06 05:50:01;;;;;;;3.78;3.55;;;3.30;99.90;;;;;;4974302;28;20204;-69
2022/12/06 05:52:29;;;;;;;3.60;2.78;;;3.30;99.90;;;;;;4972903;28;20224;-68
2022/12/06 05:54:56;;;;;;;1.95;0.95;;;3.30;99.90;;;;;;4984839;28;20355;-69
2022/12/06 05:57:22;;;;;;;1.90;1.75;;;3.30;99.90;;;;;;4984308;28;20212;-69
2022/12/06 05:59:49;;;;;;;5.97;2.90;;;3.30;99.90;;;;;;4982580;28;20258;-69
2022/12/06 06:02:16;;;;;;;3.88;3.00;;;3.30;99.90;;;;;;4980356;28;20206;-70
2022/12/06 06:04:42;;;;;;;2.35;2.25;;;3.30;99.90;;;;;;4987146;28;20215;-69
2022/12/06 06:07:09;;;;;;;2.75;2.58;;;3.30;99.90;;;;;;4981412;28;20227;-70
2022/12/06 06:09:37;;;;;;;7.28;3.55;;;3.40;99.90;;;;;;4989420;28;20205;-70
2022/12/06 06:12:04;;;;;;;5.78;2.80;;;3.30;99.90;;;;;;4978495;28;20221;-70
2022/12/06 06:14:31;;;;;;;1.02;1.02;;;3.40;99.90;;;;;;4973777;28;20252;-69
2022/12/06 06:16:57;;;;;;;3.08;2.28;;;3.40;99.90;;;;;;4984849;28;20239;-70
2022/12/06 06:19:24;;;;;;;3.05;2.95;;;3.40;99.90;;;;;;4991924;28;20270;-69
2022/12/06 06:21:51;;;;;;;4.60;2.15;;;3.40;99.90;;;;;;4981418;28;20208;-69
2022/12/06 06:24:17;;;;;;;4.45;2.00;;;3.50;99.90;;;;;;4981483;28;20216;-71
2022/12/06 06:26:46;;;;;;;6.35;2.05;;;3.50;99.90;;;;;;4983938;28;20608;-69
2022/12/06 06:29:12;;;;;;;4.40;3.13;;;3.50;99.90;;;;;;4988980;28;20259;-70
2022/12/06 06:31:40;;;;;;;2.22;2.13;;;3.60;99.90;;;;;;4979405;28;20224;-68
2022/12/06 06:34:06;;;;;;;3.80;3.38;;;3.60;99.90;;;;;;4987325;28;20208;-69
2022/12/06 06:36:33;;;;;;;1.90;1.75;;;3.60;99.90;;;;;;4987099;28;20642;-69
2022/12/06 06:39:00;;;;;;;1.33;1.23;;;3.60;99.90;;;;;;4982374;28;20212;-69
2022/12/06 06:41:26;;;;;;;3.30;3.00;;;3.70;99.90;;;;;;4980884;28;20205;-70
2022/12/06 06:43:54;;;;;;;2.97;2.78;;;3.70;99.90;;;;;;4979756;28;20586;-70
2022/12/06 06:46:21;;;;;;;3.38;2.78;;;3.70;99.90;;;;;;4979490;28;20220;-69
2022/12/06 06:48:48;;;;;;;1.67;1.58;;;3.70;99.90;;;;;;4972839;28;20212;-69
2022/12/06 06:51:15;;;;;;;6.88;3.53;;;3.70;99.90;;;;;;4977873;28;20236;-70
2022/12/06 06:53:41;;;;;;;3.30;2.67;;;3.70;99.90;;;;;;4980951;28;20224;-69
2022/12/06 06:56:09;;;;;;;2.38;1.55;;;3.70;99.90;;;;;;4982645;28;20232;-69
2022/12/06 06:58:35;;;;;;;3.10;2.97;;;3.70;99.90;;;;;;4983412;28;20208;-70
2022/12/06 07:01:06;;;;;;;1.80;1.80;;;3.80;99.90;;;;;;4972851;28;20210;-69
2022/12/06 07:03:34;;;;;;;1.30;1.27;;;3.80;99.90;;;;;;4978768;28;20236;-70
2022/12/06 07:06:02;;;;;;;4.60;2.83;;;3.80;99.90;;;;;;4984173;28;20224;-69
2022/12/06 07:08:30;;;;;;;1.05;1.05;;;3.80;99.90;;;;;;4978717;28;20213;-70
2022/12/06 07:10:57;;;;;;;1.75;1.75;;;3.80;99.90;;;;;;4971334;28;20216;-70
2022/12/06 07:13:26;;;;;;;3.42;3.03;;;3.80;99.90;;;;;;4972005;28;20205;-69
2022/12/06 07:15:53;;;;;;;2.70;2.17;;;3.80;99.90;;;;;;4971882;28;20232;-70
2022/12/06 07:18:21;;;;;;;2.17;2.08;;;3.90;99.90;;;;;;4971032;28;20212;-68
2022/12/06 07:20:50;;;;;;;4.80;3.40;;;3.90;99.90;;;;;;4971412;28;20213;-68
2022/12/06 07:23:16;;;;;;;2.72;2.67;;;3.90;99.90;;;;;;4983511;28;20203;-69
2022/12/06 07:25:43;;;;;;;4.90;2.00;;;3.90;99.90;;;;;;4978596;28;20252;-68
2022/12/06 07:28:10;;;;;;;2.05;1.95;;;3.90;99.90;;;;;;4976807;28;20251;-68
2022/12/06 07:30:36;;;;;;;0.70;0.70;;;4.00;99.90;;;;;;4986329;28;20224;-69
2022/12/06 07:33:03;;;;;;;3.72;3.42;;;3.90;99.90;;;;;;4981175;28;20228;-68
2022/12/06 07:35:31;;;;;;;3.47;1.95;;;4.00;99.90;;;;;;4976695;28;20793;-68
2022/12/06 07:37:58;;;;;;;5.55;3.58;;;4.00;99.90;;;;;;4976526;28;20216;-69
2022/12/06 07:40:25;;;;;;;5.95;5.47;;;4.00;99.90;;;;;;4977905;28;20209;-68
2022/12/06 07:45:36;;;;;;;8.45;7.85;;;4.00;99.90;;;;;;4980015;28;20279;-69
2022/12/06 07:48:05;;;;;;;12.85;5.00;;;4.10;99.90;;;;;;4980335;28;20214;-70
2022/12/06 07:50:33;;;;;;;3.05;2.85;;;4.10;99.90;;;;;;4979281;28;20275;-69
2022/12/06 07:52:59;;;;;;;3.25;2.33;;;4.10;99.90;;;;;;4972641;28;20220;-69
2022/12/06 07:55:26;;;;;;;3.38;3.17;;;4.10;99.90;;;;;;4972411;28;20354;-70
2022/12/06 07:57:53;;;;;;;2.40;2.25;;;4.10;99.90;;;;;;4972154;28;20216;-69
2022/12/06 08:00:20;;;;;;;6.47;2.88;;;4.10;99.90;;;;;;4980281;28;20200;-70
2022/12/06 08:02:47;;;;;;;4.60;3.17;;;4.10;99.90;;;;;;4991519;28;20617;-69
2022/12/06 08:05:14;;;;;;;2.80;2.70;;;4.20;99.90;;;;;;4995944;28;20208;-69
2022/12/06 08:07:42;;;;;;;2.85;1.90;;;4.20;99.90;;;;;;4985265;28;20200;-69
2022/12/06 08:10:09;;;;;;;6.85;2.88;;;4.20;99.90;;;;;;4988035;28;20210;-69
2022/12/06 08:12:36;;;;;;;6.53;1.98;;;4.20;99.90;;;;;;4983118;28;20580;-70
2022/12/06 08:15:04;;;;;;;3.13;2.80;;;4.30;99.90;;;;;;4985260;28;20615;-69
2022/12/06 08:17:31;;;;;;;3.47;3.15;;;4.30;99.90;;;;;;4983279;28;20660;-69
2022/12/06 08:19:57;;;;;;;4.15;2.67;;;4.30;99.90;;;;;;4975476;28;20256;-70
2022/12/06 08:22:24;;;;;;;5.00;4.25;;;4.30;99.90;;;;;;4975082;28;20294;-69
2022/12/06 08:24:52;;;;;;;5.32;4.72;;;4.30;99.90;;;;;;4984783;28;20227;-69
2022/12/06 08:27:19;;;;;;;6.72;4.45;;;4.30;99.90;;;;;;4978634;28;20228;-69
2022/12/06 08:29:46;;;;;;;4.63;4.32;;;4.30;99.90;;;;;;4988848;28;20287;-70
2022/12/06 08:32:12;;;;;;;8.52;7.72;;;4.40;99.90;;;;;;4994289;28;20282;-69
2022/12/06 08:34:39;;;;;;;4.53;4.20;;;4.40;99.90;;;;;;4989502;28;20337;-69
2022/12/06 08:37:06;;;;;;;8.43;7.95;;;4.40;99.90;;;;;;4983228;28;20228;-70
2022/12/06 08:39:32;;;;;;;3.10;2.90;;;4.40;99.90;;;;;;4975999;28;20213;-70
2022/12/06 08:42:02;;;;;;;3.60;3.40;;;4.50;99.90;;;;;;4980973;28;20252;-68
2022/12/06 08:44:31;;;;;;;3.20;2.55;;;4.50;99.90;;;;;;4975764;28;20643;-71
2022/12/06 08:46:59;;;;;;;3.60;3.45;;;4.50;99.90;;;;;;4983569;28;20225;-69
2022/12/06 08:49:27;;;;;;;3.85;3.65;;;4.50;99.90;;;;;;4984733;28;20213;-69
2022/12/06 08:51:54;;;;;;;4.60;4.10;;;4.50;99.90;;;;;;4974998;28;20232;-70
2022/12/06 08:54:22;;;;;;;2.38;2.08;;;4.50;99.90;;;;;;4974894;28;20198;-70
2022/12/06 08:56:49;;;;;;;2.72;1.95;;;4.50;99.90;;;;;;4974847;28;20328;-71
2022/12/06 08:59:18;;;;;;;1.95;1.85;;;4.60;99.90;;;;;;4979829;28;20217;-69
2022/12/06 09:01:45;;;;;;;6.10;4.13;;;4.60;99.90;;;;;;4982359;28;20206;-69
2022/12/06 09:04:13;;;;;;;11.02;2.15;;;4.60;99.90;;;;;;4981531;28;20209;-69
2022/12/06 09:06:42;;;;;;;1.65;1.65;;;4.60;99.90;;;;;;4974450;28;20225;-69
2022/12/06 09:09:10;;;;;;;2.85;2.63;;;4.60;99.90;;;;;;4973572;28;20664;-69
2022/12/06 09:11:37;;;;;;;2.05;2.05;;;4.70;99.90;;;;;;4974575;28;20201;-69
2022/12/06 09:14:04;;;;;;;0.68;0.68;;;4.70;99.90;;;;;;4973804;28;20209;-70
2022/12/06 09:16:32;;;;;;;2.38;2.13;;;4.70;99.90;;;;;;4980128;28;20234;-69
2022/12/06 09:18:58;;;;;;;1.65;1.48;;;4.80;99.90;;;;;;4981692;28;20208;-69
2022/12/06 09:21:29;;;;;;;1.92;1.80;;;4.80;99.90;;;;;;4974400;28;20217;-70
2022/12/06 09:23:56;;;;;;;2.50;2.33;;;4.80;99.90;;;;;;4984026;28;20209;-69
2022/12/06 09:26:24;;;;;;;5.13;2.53;;;4.80;99.90;;;;;;4982889;28;20222;-70
2022/12/06 09:28:51;;;;;;;0.80;0.80;;;4.80;99.90;;;;;;4976749;28;20590;-70
2022/12/06 09:31:18;;;;;;;2.13;1.92;;;4.80;99.90;;;;;;4976859;28;20220;-70
2022/12/06 09:33:46;;;;;;;0.90;0.90;;;4.90;99.90;;;;;;4989656;28;20560;-70
2022/12/06 09:36:17;;;;;;;1.90;1.90;;;4.90;99.90;;;;;;4976833;28;20225;-70
2022/12/06 09:38:45;;;;;;;3.38;2.58;;;4.90;99.90;;;;;;4985620;28;20550;-70
2022/12/06 09:41:27;;;;;;;1.25;1.20;;;4.90;99.90;;;;;;4994308;28;20223;-70
2022/12/06 09:44:09;;;;;;;1.33;1.33;;;4.90;99.90;;;;;;4974618;28;20654;-71
2022/12/06 09:46:51;;;;;;;2.75;2.60;;;4.80;99.90;;;;;;4972928;28;20232;-71
2022/12/06 09:49:28;;;;;;;2.00;1.90;;;4.80;99.90;;;;;;4974492;28;20643;-71
2022/12/06 09:52:19;;;;;;;1.10;1.10;;;4.80;99.90;;;;;;4980208;28;20560;-71
2022/12/06 09:55:12;;;;;;;2.08;1.98;;;4.90;99.90;;;;;;4984449;28;20300;-70
2022/12/06 09:57:46;;;;;;;1.95;1.85;;;4.80;99.90;;;;;;4984934;28;20208;-71
2022/12/06 10:00:15;;;;;;;1.95;1.85;;;4.80;99.90;;;;;;4980681;28;20210;-70
2022/12/06 10:03:28;;;;;;;2.55;2.45;;;4.90;99.90;;;;;;4973689;28;20217;-72
2022/12/06 10:06:01;;;;;;;5.07;4.13;;;4.90;99.90;;;;;;4968051;28;20715;-70
2022/12/06 10:08:46;;;;;;;4.32;2.92;;;4.90;99.90;;;;;;4973082;28;20217;-70
2022/12/06 10:11:23;;;;;;;2.05;1.98;;;4.90;99.90;;;;;;4972460;28;20225;-71
2022/12/06 10:14:01;;;;;;;3.30;2.85;;;4.90;99.90;;;;;;4981677;28;20680;-70
2022/12/06 10:16:46;;;;;;;2.65;2.47;;;4.80;99.90;;;;;;4973997;28;20330;-70
2022/12/06 10:19:25;;;;;;;2.88;2.78;;;4.80;99.90;;;;;;4981572;28;20235;-71
2022/12/06 10:22:05;;;;;;;2.53;2.25;;;4.80;99.90;;;;;;4971577;28;20601;-71
2022/12/06 10:24:43;;;;;;;1.67;1.58;;;4.80;99.90;;;;;;4976087;28;20213;-70
2022/12/06 10:27:12;;;;;;;1.67;1.65;;;4.80;99.90;;;;;;4987698;28;20224;-71
2022/12/06 10:29:52;;;;;;;4.32;3.92;;;4.80;99.90;;;;;;4993974;28;20212;-71
2022/12/06 10:32:38;;;;;;;3.78;2.70;;;4.80;99.90;;;;;;4997194;28;20195;-71
2022/12/06 10:35:16;;;;;;;5.45;5.03;;;4.80;99.90;;;;;;4996756;28;20201;-70
2022/12/06 10:37:56;;;;;;;3.80;3.15;;;4.80;99.90;;;;;;5000976;28;20209;-70
2022/12/06 10:40:26;;;;;;;5.07;4.07;;;4.80;99.90;;;;;;4990161;28;20205;-72
2022/12/06 10:42:58;;;;;;;6.57;4.32;;;4.80;99.90;;;;;;4983027;28;20209;-71
2022/12/06 10:48:18;;;;;;;3.50;3.30;;;4.80;99.90;;;;;;4973815;28;20224;-71
2022/12/06 10:50:47;;;;;;;5.68;2.22;;;4.70;99.90;;;;;;4973192;28;20212;-72
2022/12/06 10:53:18;;;;;;;4.15;3.25;;;4.80;99.90;;;;;;4971084;28;20217;-70
2022/12/06 10:55:49;;;;;;;3.88;3.47;;;4.70;99.90;;;;;;4976114;28;20229;-72
2022/12/06 10:58:24;;;;;;;6.40;4.63;;;4.80;99.90;;;;;;4980828;28;20695;-70
2022/12/06 11:00:57;;;;;;;10.30;5.30;;;4.70;99.90;;;;;;4986962;28;20207;-70
2022/12/06 11:03:29;;;;;;;2.33;2.33;;;4.70;99.90;;;;;;4990807;28;20209;-72
2022/12/06 11:06:01;;;;;;;5.07;3.42;;;4.70;99.90;;;;;;4974557;28;20288;-71
2022/12/06 11:08:35;;;;;;;4.93;4.35;;;4.70;99.90;;;;;;4972845;28;20213;-71
2022/12/06 11:11:04;;;;;;;4.07;3.63;;;4.70;99.90;;;;;;4981741;28;20258;-70
2022/12/06 11:13:37;;;;;;;10.45;4.47;;;4.60;99.90;;;;;;4991128;28;20220;-70
2022/12/06 11:16:10;;;;;;;10.25;6.20;;;4.60;99.90;;;;;;4981930;28;20236;-71
2022/12/06 11:18:37;;;;;;;6.85;4.40;;;4.60;99.90;;;;;;4983393;28;20212;-72
2022/12/06 11:21:13;;;;;;;3.42;3.22;;;4.70;99.90;;;;;;4981842;28;20660;-72
2022/12/06 11:23:50;;;;;;;8.35;3.83;;;4.60;99.90;;;;;;4980067;28;20215;-72
2022/12/06 11:26:23;;;;;;;5.55;3.83;;;4.60;99.90;;;;;;4990971;28;20243;-73
2022/12/06 11:28:59;;;;;;;4.60;4.28;;;4.60;99.90;;;;;;4981935;28;20208;-70
2022/12/06 11:31:28;;;;;;;5.60;4.57;;;4.60;99.90;;;;;;4990902;28;20350;-68
2022/12/06 11:33:56;;;;;;;5.68;3.58;;;4.60;99.90;;;;;;4972013;28;20229;-72
2022/12/06 11:36:25;;;;;;;5.70;2.90;;;4.60;99.90;;;;;;4972505;28;20235;-73
2022/12/06 11:38:53;;;;;;;3.50;3.20;;;4.60;99.90;;;;;;4971957;28;20204;-72
2022/12/06 11:41:23;;;;;;;5.97;3.97;;;4.60;99.90;;;;;;4971501;28;20210;-71
2022/12/06 11:43:52;;;;;;;6.57;5.18;;;4.60;99.90;;;;;;4983357;28;20197;-69
2022/12/06 11:46:19;;;;;;;7.05;6.45;;;4.60;99.90;;;;;;4982331;28;21009;-72
2022/12/06 11:48:46;;;;;;;3.28;3.08;;;4.60;99.90;;;;;;4971498;28;20205;-70
2022/12/06 11:51:17;;;;;;;4.82;3.35;;;4.70;99.90;;;;;;4972137;28;20214;-71
2022/12/06 11:53:59;;;;;;;8.25;6.20;;;4.60;99.90;;;;;;4971642;28;20247;-70
2022/12/06 11:56:27;;;;;;;9.90;5.07;;;4.60;99.90;;;;;;4975436;28;20322;-71
2022/12/06 11:59:05;;;;;;;3.45;3.15;;;4.60;99.90;;;;;;4991797;28;20528;-70
2022/12/06 12:01:41;;;;;;;4.18;3.78;;;4.60;99.90;;;;;;4990306;28;20204;-71
2022/12/06 12:04:34;;;;;;;7.35;6.72;;;4.60;99.90;;;;;;4990946;28;20616;-69
2022/12/06 12:07:04;;;;;;;5.82;5.15;;;4.60;99.90;;;;;;4990947;28;20228;-69
2022/12/06 12:09:35;;;;;;;6.65;3.75;;;4.60;99.90;;;;;;4990338;28;20211;-70
2022/12/06 12:12:05;;;;;;;5.35;2.75;;;4.60;99.90;;;;;;4989411;28;20213;-69
2022/12/06 12:14:39;;;;;;;11.73;5.22;;;4.60;99.90;;;;;;4991259;28;20342;-70
2022/12/06 12:17:16;;;;;;;5.63;4.20;;;4.60;99.90;;;;;;4990427;28;20610;-71
2022/12/06 12:19:46;;;;;;;13.73;6.40;;;4.60;99.90;;;;;;4991361;28;20302;-69
2022/12/06 12:22:20;;;;;;;5.40;5.15;;;4.60;99.90;;;;;;4991629;28;20216;-70
2022/12/06 12:24:51;;;;;;;4.90;4.53;;;4.50;99.90;;;;;;4983067;28;20212;-71
2022/12/06 12:27:42;;;;;;;5.88;5.05;;;4.50;99.90;;;;;;4991221;28;20589;-70
2022/12/06 12:30:28;;;;;;;4.43;4.25;;;4.50;99.90;;;;;;4991167;28;20209;-68
2022/12/06 12:33:17;;;;;;;18.92;8.05;;;4.50;99.90;;;;;;4990480;28;20224;-69
2022/12/06 12:35:46;;;;;;;8.68;5.30;;;4.50;99.90;;;;;;4981206;28;20287;-70
2022/12/06 12:38:27;;;;;;;9.40;7.82;;;4.50;99.90;;;;;;4982001;28;20212;-70
2022/12/06 12:40:59;;;;;;;11.30;6.97;;;4.50;99.90;;;;;;4983452;28;20215;-69
2022/12/06 12:43:29;;;;;;;7.47;6.70;;;4.60;99.90;;;;;;4970938;28;20209;-70
2022/12/06 12:46:06;;;;;;;4.57;4.30;;;4.60;99.90;;;;;;4979704;28;20229;-71
2022/12/06 12:48:34;;;;;;;7.50;6.88;;;4.60;99.90;;;;;;4971046;28;20584;-70
2022/12/06 12:51:03;;;;;;;12.63;9.45;;;4.60;99.90;;;;;;4979000;28;20215;-71
2022/12/06 12:53:35;;;;;;;3.95;3.85;;;4.60;99.90;;;;;;4987259;28;20223;-70
2022/12/06 12:56:13;;;;;;;7.80;7.13;;;4.60;99.90;;;;;;4977763;28;20597;-70
2022/12/06 12:58:40;;;;;;;6.20;4.57;;;4.60;99.90;;;;;;4975476;28;20284;-70
2022/12/06 13:01:21;;;;;;;13.25;7.40;;;4.60;99.90;;;;;;4975368;28;20209;-71
2022/12/06 13:03:50;;;;;;;18.63;8.90;;;4.60;99.90;;;;;;4974496;28;20201;-70
2022/12/06 13:06:27;;;;;;;13.90;10.13;;;4.60;99.90;;;;;;4977357;28;20231;-71
2022/12/06 13:08:59;;;;;;;6.18;5.22;;;4.60;99.90;;;;;;4993292;28;20211;-70
2022/12/06 13:11:28;;;;;;;10.60;6.20;;;4.60;99.90;;;;;;4983028;28;20213;-69
2022/12/06 13:13:56;;;;;;;8.55;6.53;;;4.60;99.90;;;;;;4990841;28;20253;-71
2022/12/06 13:16:27;;;;;;;14.27;9.13;;;4.60;99.90;;;;;;4993990;28;20613;-69
2022/12/06 13:18:57;;;;;;;12.38;9.25;;;4.60;99.90;;;;;;4994481;28;20285;-69
2022/12/06 13:21:30;;;;;;;6.22;5.57;;;4.60;99.90;;;;;;4980600;28;20209;-71
2022/12/06 13:24:02;;;;;;;10.15;9.02;;;4.60;99.90;;;;;;4977806;28;20201;-71
2022/12/06 13:26:33;;;;;;;9.48;8.02;;;4.70;99.90;;;;;;4982405;28;20232;-69
2022/12/06 13:29:07;;;;;;;12.02;8.93;;;4.60;99.90;;;;;;4977927;28;20205;-71
2022/12/06 13:31:38;;;;;;;11.57;7.00;;;4.60;99.90;;;;;;4975225;28;20209;-71
2022/12/06 13:34:16;;;;;;;16.45;9.90;;;4.70;99.90;;;;;;4986154;28;20315;-71
2022/12/06 13:36:43;;;;;;;10.30;8.43;;;4.70;99.90;;;;;;4989878;28;20228;-71
2022/12/06 13:39:36;;;;;;;10.10;8.02;;;4.70;99.90;;;;;;4975089;28;20743;-70
2022/12/06 13:42:17;;;;;;;3.38;3.20;;;4.60;99.90;;;;;;4974003;28;20212;-70
2022/12/06 13:44:52;;;;;;;7.03;5.90;;;4.60;99.90;;;;;;4974338;28;20205;-70
2022/12/06 13:47:50;;;;;;;10.63;8.35;;;4.60;99.90;;;;;;4975401;28;20229;-70
2022/12/06 13:50:50;;;;;;;6.88;6.25;;;4.60;99.90;;;;;;4973470;28;20257;-71
2022/12/06 13:53:17;;;;;;;8.57;6.63;;;4.60;99.90;;;;;;4984396;28;20224;-69
2022/12/06 13:56:00;;;;;;;7.07;5.55;;;4.60;99.90;;;;;;4993323;28;20737;-70
2022/12/06 13:58:59;;;;;;;9.85;7.85;;;4.60;99.90;;;;;;4990983;28;20215;-70
2022/12/06 14:01:39;;;;;;;7.28;4.03;;;4.60;99.90;;;;;;4991916;28;20199;-70
2022/12/06 14:04:31;;;;;;;7.75;7.10;;;4.50;99.90;;;;;;4993260;28;20215;-70
2022/12/06 14:07:00;;;;;;;11.48;4.75;;;4.50;99.90;;;;;;4993098;28;20664;-71
2022/12/06 14:09:34;;;;;;;8.75;5.95;;;4.50;99.90;;;;;;4993664;28;20236;-70
2022/12/06 14:12:07;;;;;;;9.13;4.05;;;4.50;99.90;;;;;;4973895;28;20211;-71
2022/12/06 14:14:35;;;;;;;4.47;4.18;;;4.40;99.90;;;;;;4972664;28;20228;-70
2022/12/06 14:17:04;;;;;;;6.38;5.97;;;4.50;99.90;;;;;;4972406;28;20252;-71
2022/12/06 14:19:40;;;;;;;5.63;3.90;;;4.50;99.90;;;;;;4974129;28;20213;-71
2022/12/06 14:22:19;;;;;;;7.50;5.10;;;4.50;99.90;;;;;;4982086;28;20207;-71
2022/12/06 14:24:57;;;;;;;3.88;3.65;;;4.50;99.90;;;;;;4984506;28;20216;-71
2022/12/06 14:27:26;;;;;;;4.45;3.03;;;4.40;99.90;;;;;;4978901;28;20261;-71
2022/12/06 14:30:05;;;;;;;4.32;3.80;;;4.40;99.90;;;;;;4983353;28;20210;-70
2022/12/06 14:32:35;;;;;;;48.25;6.88;;;4.40;99.90;;;;;;4976761;28;20265;-71
2022/12/06 14:35:07;;;;;;;10.02;6.90;;;4.40;99.90;;;;;;4974949;28;20239;-70
2022/12/06 14:37:33;;;;;;;12.55;8.05;;;4.40;99.90;;;;;;4990229;28;20212;-71
2022/12/06 14:40:00;;;;;;;12.02;8.90;;;4.40;99.90;;;;;;4975277;28;20680;-70
2022/12/06 14:45:15;;;;;;;3.30;3.00;;;4.30;99.90;;;;;;4973335;28;20412;-71
2022/12/06 14:47:44;;;;;;;4.30;3.78;;;4.40;99.90;;;;;;4972978;28;20205;-69
2022/12/06 14:50:24;;;;;;;6.90;4.25;;;4.40;99.90;;;;;;4973626;28;20210;-70
2022/12/06 14:53:01;;;;;;;5.85;5.25;;;4.30;99.90;;;;;;4973046;28;20222;-70
2022/12/06 14:55:30;;;;;;;6.35;5.43;;;4.30;99.90;;;;;;4984174;28;20232;-71
2022/12/06 14:57:59;;;;;;;11.68;5.03;;;4.30;99.90;;;;;;4974397;28;20688;-69
2022/12/06 15:00:34;;;;;;;7.68;3.22;;;4.30;99.90;;;;;;4978168;28;20208;-70
2022/12/06 15:03:30;;;;;;;5.97;4.50;;;4.30;99.90;;;;;;4976074;28;20208;-69
2022/12/06 15:06:15;;;;;;;2.42;2.30;;;4.30;99.90;;;;;;4947125;28;20714;-70
2022/12/06 15:08:42;;;;;;;3.88;3.13;;;4.30;99.90;;;;;;4976121;28;20201;-71
2022/12/06 15:14:17;;;;;;;6.88;3.72;;;4.30;99.90;;;;;;4977653;28;20322;-71
2022/12/06 15:16:55;;;;;;;3.88;2.95;;;4.20;99.90;;;;;;4983960;28;20232;-71
2022/12/06 15:19:22;;;;;;;12.25;1.92;;;4.20;99.90;;;;;;4981075;28;20687;-71
2022/12/06 15:21:50;;;;;;;2.53;2.42;;;4.20;99.90;;;;;;4981305;28;20208;-72
2022/12/06 15:24:18;;;;;;;2.00;1.90;;;4.10;99.90;;;;;;4990463;28;20208;-70
2022/12/06 15:26:45;;;;;;;1.58;1.58;;;4.10;99.90;;;;;;4983213;28;20228;-70
2022/12/06 15:29:12;;;;;;;3.83;1.60;;;4.10;99.90;;;;;;4985789;28;20776;-69
2022/12/06 15:31:42;;;;;;;4.18;3.90;;;4.10;99.90;;;;;;4988682;28;20965;-68
2022/12/06 15:34:33;;;;;;;3.80;3.50;;;4.10;99.90;;;;;;4992043;28;20232;-71
2022/12/06 15:37:01;;;;;;;6.10;2.80;;;4.10;99.90;;;;;;4970155;28;20230;-70
2022/12/06 15:39:28;;;;;;;4.20;3.50;;;4.10;99.90;;;;;;4974028;28;20216;-70
2022/12/06 15:41:55;;;;;;;3.60;3.05;;;4.00;99.90;;;;;;4979831;28;20208;-71
2022/12/06 15:44:24;;;;;;;4.32;2.95;;;4.00;99.90;;;;;;4984925;28;20207;-70
2022/12/06 15:46:51;;;;;;;3.25;2.90;;;4.00;99.90;;;;;;4983683;28;20711;-71
2022/12/06 15:49:20;;;;;;;0.88;0.88;;;4.00;99.90;;;;;;4995711;28;20262;-70
2022/12/06 15:51:48;;;;;;;3.97;3.58;;;4.00;99.90;;;;;;4976902;28;20228;-71
2022/12/06 15:54:17;;;;;;;9.52;3.10;;;4.00;99.90;;;;;;4980528;28;20632;-71
2022/12/06 15:56:44;;;;;;;5.97;4.93;;;4.00;99.90;;;;;;4980123;28;20704;-71
2022/12/06 15:59:11;;;;;;;4.53;4.22;;;4.00;99.90;;;;;;4975880;28;20556;-71
2022/12/06 16:01:42;;;;;;;8.38;4.07;;;4.00;99.90;;;;;;4974916;28;20208;-71
2022/12/06 16:04:14;;;;;;;3.33;1.42;;;4.00;99.90;;;;;;4974419;28;20201;-71
2022/12/06 16:06:41;;;;;;;5.78;2.22;;;4.00;99.90;;;;;;4976655;28;20236;-71
2022/12/06 16:09:09;;;;;;;2.50;2.40;;;4.00;99.90;;;;;;4984951;28;20230;-72
2022/12/06 16:11:36;;;;;;;1.77;1.67;;;3.90;99.90;;;;;;4984508;28;20266;-71
2022/12/06 16:14:03;;;;;;;2.55;2.35;;;3.90;99.90;;;;;;4984855;28;20733;-71
2022/12/06 16:16:30;;;;;;;4.80;1.85;;;4.00;99.90;;;;;;4980190;28;20236;-71
2022/12/06 16:18:56;;;;;;;2.88;1.77;;;3.90;99.90;;;;;;4982301;28;20582;-72
2022/12/06 16:21:25;;;;;;;6.63;3.03;;;3.90;99.90;;;;;;4977766;28;20201;-71
2022/12/06 16:23:59;;;;;;;3.40;1.75;;;3.90;99.90;;;;;;4976084;28;20197;-71
2022/12/06 16:26:29;;;;;;;2.67;2.58;;;3.90;99.90;;;;;;4982214;28;20229;-70
2022/12/06 16:28:56;;;;;;;2.78;2.60;;;3.90;99.90;;;;;;4996053;28;20962;-71
2022/12/06 16:31:23;;;;;;;1.65;1.55;;;4.00;99.90;;;;;;4984464;28;20246;-70
2022/12/06 16:33:49;;;;;;;3.17;2.97;;;3.90;99.90;;;;;;4984328;28;20235;-70
2022/12/06 16:36:19;;;;;;;1.73;1.63;;;3.90;99.90;;;;;;4990205;28;20228;-71
2022/12/06 16:38:52;;;;;;;3.03;2.13;;;3.90;99.90;;;;;;4984211;28;20213;-73
2022/12/06 16:41:20;;;;;;;4.05;2.95;;;3.90;99.90;;;;;;4991018;28;20204;-72
2022/12/06 16:43:49;;;;;;;2.58;2.42;;;3.90;99.90;;;;;;5001258;28;20638;-71
2022/12/06 16:46:26;;;;;;;1.85;1.75;;;3.90;99.90;;;;;;4997925;28;20231;-71
2022/12/06 16:48:54;;;;;;;3.38;1.77;;;3.90;99.90;;;;;;4987496;28;20231;-72
2022/12/06 16:51:21;;;;;;;5.03;3.28;;;3.80;99.90;;;;;;4989414;28;20200;-72
2022/12/06 16:53:48;;;;;;;3.58;3.30;;;3.80;99.90;;;;;;4980810;28;20662;-72
2022/12/06 16:56:15;;;;;;;4.88;2.58;;;3.80;99.90;;;;;;4979742;28;20692;-72
2022/12/06 16:58:42;;;;;;;3.60;2.90;;;3.80;99.90;;;;;;5002938;28;20681;-71
2022/12/06 17:01:22;;;;;;;3.35;3.25;;;3.80;99.90;;;;;;4989134;28;20303;-71
2022/12/06 17:03:54;;;;;;;3.25;2.33;;;3.80;99.90;;;;;;4983947;28;20201;-69
2022/12/06 17:06:21;;;;;;;2.85;2.63;;;3.70;99.90;;;;;;4992057;28;20232;-73
2022/12/06 17:08:48;;;;;;;4.93;4.20;;;3.60;99.90;;;;;;4997299;28;20208;-72
2022/12/06 17:14:01;;;;;;;3.30;2.55;;;3.40;99.90;;;;;;4995963;28;20241;-72
2022/12/06 17:16:30;;;;;;;3.08;2.88;;;3.40;99.90;;;;;;4998466;28;20232;-72
2022/12/06 17:18:57;;;;;;;2.05;1.92;;;3.40;99.90;;;;;;4987603;28;20303;-72
2022/12/06 17:21:24;;;;;;;7.03;4.28;;;3.30;99.90;;;;;;4986828;28;20215;-71
2022/12/06 17:23:53;;;;;;;4.10;3.83;;;3.20;99.90;;;;;;4977901;28;20209;-71
2022/12/06 17:26:20;;;;;;;2.42;2.22;;;3.20;99.90;;;;;;4974821;28;20232;-70
2022/12/06 17:28:47;;;;;;;4.00;3.70;;;3.10;99.90;;;;;;4981197;28;20247;-72
2022/12/06 17:31:13;;;;;;;6.78;2.90;;;3.00;99.90;;;;;;4987786;28;20575;-72
2022/12/06 17:33:41;;;;;;;1.58;1.52;;;3.00;99.90;;;;;;4976708;28;20205;-72
2022/12/06 17:36:10;;;;;;;3.83;2.25;;;2.90;99.90;;;;;;4979265;28;20679;-72
2022/12/06 17:38:37;;;;;;;2.90;2.67;;;2.90;99.90;;;;;;4976985;28;20690;-72
2022/12/06 17:43:53;;;;;;;2.42;2.22;;;2.80;99.90;;;;;;4982245;28;20674;-72
2022/12/06 17:46:19;;;;;;;4.63;4.43;;;2.70;99.90;;;;;;4977388;28;20538;-71
2022/12/06 17:48:47;;;;;;;1.60;1.50;;;2.70;99.90;;;;;;4976179;28;20259;-72
2022/12/06 17:51:14;;;;;;;2.63;2.33;;;2.70;99.90;;;;;;4988570;28;20208;-72
2022/12/06 17:53:41;;;;;;;2.78;1.77;;;2.70;99.90;;;;;;4990677;28;20268;-73
2022/12/06 17:56:28;;;;;;;1.52;1.50;;;2.80;99.90;;;;;;4995028;28;20235;-71
2022/12/06 17:58:57;;;;;;;2.50;2.38;;;2.80;99.90;;;;;;4977339;28;20209;-72
2022/12/06 18:01:24;;;;;;;2.45;2.35;;;2.80;99.90;;;;;;4976653;28;20197;-71
2022/12/06 18:03:52;;;;;;;3.35;3.20;;;2.80;99.90;;;;;;4981466;28;20208;-72
2022/12/06 18:06:20;;;;;;;4.05;3.30;;;2.80;99.90;;;;;;4978447;28;20257;-71
2022/12/06 18:08:46;;;;;;;5.75;5.20;;;2.90;99.90;;;;;;4988124;28;20214;-74
2022/12/06 18:11:13;;;;;;;5.15;2.97;;;2.80;99.90;;;;;;4995205;28;20204;-71
2022/12/06 18:13:40;;;;;;;1.88;1.67;;;2.90;99.90;;;;;;5008399;28;20321;-71
2022/12/06 18:16:13;;;;;;;4.55;2.85;;;2.90;99.90;;;;;;4999974;28;20208;-70
2022/12/06 18:18:41;;;;;;;6.38;2.55;;;2.90;99.90;;;;;;4997509;28;20220;-71
2022/12/06 18:21:09;;;;;;;7.43;4.03;;;2.80;99.90;;;;;;4989483;28;20213;-71
2022/12/06 18:23:37;;;;;;;1.23;1.13;;;2.80;99.90;;;;;;4984574;28;20317;-72
2022/12/06 18:26:07;;;;;;;7.53;2.20;;;2.80;99.90;;;;;;4976091;28;20295;-71
2022/12/06 18:28:35;;;;;;;3.33;3.13;;;2.80;99.90;;;;;;4975555;28;20281;-70
2022/12/06 18:31:01;;;;;;;3.50;3.20;;;2.80;99.90;;;;;;4974713;28;20671;-71